Time;durP1;ratioP1;P1;durP2;ratioP2;P2;SDS_P1;SDS_P2;PMS_P1;PMS_P2;Temp;Humidity;BMP_temperature;BMP_pressure;BME280_temperature;BME280_humidity;BME280_pressure;Samples;Min_cycle;Max_cycle;Signal;HPM_P1;HPM_P2
2022/03/20 00:00:30;;;;;;;27.70;18.65;;;9.80;47.30;;;;;;5022913;28;20098;-85
2022/03/20 00:02:56;;;;;;;24.00;18.10;;;9.90;47.50;;;;;;5015626;28;20046;-88
2022/03/20 00:05:22;;;;;;;29.27;19.63;;;9.90;47.80;;;;;;5031953;28;20512;-88
2022/03/20 00:07:48;;;;;;;28.85;20.92;;;9.90;46.60;;;;;;5035067;28;20061;-88
2022/03/20 00:10:15;;;;;;;24.30;18.45;;;9.90;47.30;;;;;;5014824;28;20053;-89
2022/03/20 00:12:41;;;;;;;25.85;17.17;;;9.80;46.80;;;;;;5015068;28;20030;-89
2022/03/20 00:15:07;;;;;;;26.80;18.30;;;9.90;47.00;;;;;;5024319;28;20037;-88
2022/03/20 00:17:33;;;;;;;22.15;17.38;;;9.90;47.10;;;;;;5028932;28;20026;-88
2022/03/20 00:19:59;;;;;;;24.60;19.05;;;9.90;46.50;;;;;;5032763;28;20403;-88
2022/03/20 00:22:25;;;;;;;26.58;19.88;;;9.80;46.30;;;;;;5025095;28;20034;-88
2022/03/20 00:24:51;;;;;;;25.90;19.50;;;9.80;46.30;;;;;;5012178;28;20064;-88
2022/03/20 00:27:17;;;;;;;25.38;18.08;;;9.70;46.70;;;;;;5023143;28;20034;-88
2022/03/20 00:29:44;;;;;;;25.65;18.90;;;9.80;46.80;;;;;;5021688;28;20068;-88
2022/03/20 00:32:11;;;;;;;25.58;17.92;;;9.70;47.10;;;;;;5027176;28;20034;-89
2022/03/20 00:34:38;;;;;;;28.95;19.67;;;9.80;46.50;;;;;;5011956;28;20058;-88
2022/03/20 00:37:06;;;;;;;23.35;17.83;;;9.90;45.40;;;;;;5015182;28;20041;-88
2022/03/20 00:39:32;;;;;;;34.15;20.55;;;9.80;46.00;;;;;;5014705;28;20038;-88
2022/03/20 00:41:58;;;;;;;26.25;20.08;;;9.80;46.50;;;;;;4997388;28;20022;-88
2022/03/20 00:44:24;;;;;;;28.25;21.08;;;9.70;45.80;;;;;;5014567;28;20057;-88
2022/03/20 00:46:50;;;;;;;26.88;21.30;;;9.70;46.60;;;;;;4997772;28;20710;-86
2022/03/20 00:49:16;;;;;;;26.77;19.40;;;9.70;46.10;;;;;;4996051;28;20113;-86
2022/03/20 00:51:43;;;;;;;27.55;19.40;;;9.70;47.00;;;;;;5014022;28;20034;-87
2022/03/20 00:54:10;;;;;;;28.58;19.67;;;9.70;46.10;;;;;;5014141;28;20042;-87
2022/03/20 00:56:37;;;;;;;27.15;20.13;;;9.70;46.40;;;;;;5004689;28;20091;-87
2022/03/20 00:59:03;;;;;;;29.92;20.80;;;9.70;45.70;;;;;;5024680;28;20034;-87
2022/03/20 01:01:29;;;;;;;28.60;21.33;;;9.70;45.90;;;;;;5021705;28;20037;-86
2022/03/20 01:03:56;;;;;;;25.55;19.92;;;9.70;46.00;;;;;;5018151;28;20038;-86
2022/03/20 01:06:24;;;;;;;32.33;22.65;;;9.60;45.80;;;;;;5037707;28;20116;-88
2022/03/20 01:08:51;;;;;;;27.65;19.83;;;9.60;45.90;;;;;;5017827;28;20046;-86
2022/03/20 01:11:17;;;;;;;28.08;19.73;;;9.70;46.10;;;;;;5016862;28;20030;-85
2022/03/20 01:13:43;;;;;;;33.15;22.05;;;9.80;45.60;;;;;;5022029;28;20038;-85
2022/03/20 01:16:09;;;;;;;29.00;22.08;;;9.80;46.10;;;;;;5019739;28;20034;-84
2022/03/20 01:18:35;;;;;;;27.60;18.02;;;9.60;46.30;;;;;;5032218;28;20045;-83
2022/03/20 01:21:01;;;;;;;27.00;20.80;;;9.70;46.00;;;;;;5000114;28;20151;-82
2022/03/20 01:23:27;;;;;;;29.05;20.75;;;9.70;46.60;;;;;;5022378;28;20092;-83
2022/03/20 01:25:53;;;;;;;28.42;18.75;;;9.70;46.40;;;;;;5026165;28;20046;-83
2022/03/20 01:28:20;;;;;;;26.52;19.10;;;9.80;46.10;;;;;;5026222;28;20038;-83
2022/03/20 01:30:49;;;;;;;26.30;19.73;;;9.80;45.80;;;;;;5001680;28;20046;-81
2022/03/20 01:33:17;;;;;;;26.08;19.45;;;9.80;46.00;;;;;;5023673;28;20056;-82
2022/03/20 01:35:43;;;;;;;34.70;21.38;;;9.80;45.70;;;;;;5004664;28;20048;-84
2022/03/20 01:38:10;;;;;;;33.88;21.17;;;9.80;46.30;;;;;;5015879;28;20097;-82
2022/03/20 01:40:36;;;;;;;26.98;19.13;;;9.80;46.40;;;;;;5022371;28;20046;-83
2022/03/20 01:43:03;;;;;;;32.08;21.40;;;9.80;46.20;;;;;;5020872;28;20034;-82
2022/03/20 01:45:29;;;;;;;28.70;19.45;;;9.80;46.70;;;;;;5010420;28;20037;-83
2022/03/20 01:47:55;;;;;;;32.42;20.40;;;9.70;45.80;;;;;;5017706;28;20113;-83
2022/03/20 01:50:24;;;;;;;24.05;18.20;;;9.80;46.10;;;;;;4999209;28;20153;-83
2022/03/20 01:52:51;;;;;;;27.42;19.08;;;9.90;46.40;;;;;;5017315;28;20037;-83
2022/03/20 01:55:19;;;;;;;26.25;20.85;;;9.90;45.70;;;;;;5027582;28;20476;-83
2022/03/20 01:57:45;;;;;;;33.30;21.25;;;9.90;46.10;;;;;;5017871;28;20095;-84
2022/03/20 02:00:15;;;;;;;25.15;20.00;;;9.80;46.80;;;;;;5006877;28;20481;-83
2022/03/20 02:02:41;;;;;;;26.83;19.00;;;9.80;46.30;;;;;;4998821;28;20428;-83
2022/03/20 02:05:09;;;;;;;25.27;19.70;;;9.70;46.80;;;;;;5016635;28;20065;-82
2022/03/20 02:07:36;;;;;;;31.65;19.95;;;9.70;47.00;;;;;;5000754;28;20057;-82
2022/03/20 02:10:03;;;;;;;25.90;19.52;;;9.80;46.80;;;;;;5001651;28;20031;-84
2022/03/20 02:12:29;;;;;;;34.53;19.30;;;9.80;46.60;;;;;;4986442;28;20084;-84
2022/03/20 02:15:01;;;;;;;27.75;18.15;;;9.80;46.90;;;;;;5011403;28;20045;-82
2022/03/20 02:17:29;;;;;;;24.73;18.27;;;9.80;46.30;;;;;;5018841;28;20045;-85
2022/03/20 02:19:59;;;;;;;25.40;18.13;;;9.70;46.60;;;;;;5019338;28;20113;-84
2022/03/20 02:22:25;;;;;;;;;;;9.80;46.10;;;;;;5015967;28;20066;-84
2022/03/20 02:24:51;;;;;;;27.33;16.48;;;9.80;46.80;;;;;;4999237;28;20383;-85
2022/03/20 02:27:20;;;;;;;27.05;19.60;;;9.80;46.30;;;;;;5016490;28;20037;-85
2022/03/20 02:29:53;;;;;;;32.80;21.20;;;9.90;45.80;;;;;;4998919;28;20129;-86
2022/03/20 02:32:21;;;;;;;24.52;17.55;;;9.80;46.30;;;;;;4999333;28;20025;-86
2022/03/20 02:34:49;;;;;;;25.98;18.55;;;9.80;46.20;;;;;;5021610;28;20038;-86
2022/03/20 02:37:17;;;;;;;24.60;18.77;;;9.80;46.00;;;;;;5031460;28;20208;-86
2022/03/20 02:39:43;;;;;;;23.63;17.75;;;9.80;47.20;;;;;;5016786;28;20497;-86
2022/03/20 02:42:09;;;;;;;30.90;20.25;;;9.80;46.30;;;;;;5016737;28;20047;-85
2022/03/20 02:45:00;;;;;;;29.95;20.50;;;9.70;46.30;;;;;;5028678;28;20091;-85
2022/03/20 02:47:43;;;;;;;31.50;21.42;;;9.70;47.00;;;;;;5016450;28;20049;-82
2022/03/20 02:50:13;;;;;;;26.67;19.05;;;9.60;47.00;;;;;;5015214;28;20478;-82
2022/03/20 02:52:54;;;;;;;27.67;20.92;;;9.60;46.80;;;;;;5008584;28;20044;-83
2022/03/20 02:55:34;;;;;;;29.02;21.02;;;9.60;47.10;;;;;;5005644;28;20038;-82
2022/03/20 02:58:02;;;;;;;31.90;20.85;;;9.50;47.00;;;;;;5023158;28;20038;-83
2022/03/20 03:00:32;;;;;;;28.48;20.10;;;9.50;47.10;;;;;;5021706;28;20481;-83
2022/03/20 03:03:00;;;;;;;28.00;19.92;;;9.50;47.40;;;;;;5023463;28;20033;-83
2022/03/20 03:05:29;;;;;;;29.05;20.90;;;9.60;47.20;;;;;;4989816;28;20120;-83
2022/03/20 03:10:59;;;;;;;32.95;21.63;;;9.50;47.20;;;;;;5015484;28;20080;-83
2022/03/20 03:13:27;;;;;;;25.75;19.95;;;9.50;47.40;;;;;;5028085;28;20033;-83
2022/03/20 03:15:55;;;;;;;25.58;19.10;;;9.40;47.60;;;;;;5017022;28;20050;-84
2022/03/20 03:18:21;;;;;;;29.60;20.85;;;9.50;47.90;;;;;;5009138;28;20038;-83
2022/03/20 03:20:50;;;;;;;31.10;22.35;;;9.40;48.00;;;;;;5032544;28;20053;-84
2022/03/20 03:23:16;;;;;;;27.73;18.77;;;9.40;47.60;;;;;;5008623;28;20387;-85
2022/03/20 03:25:42;;;;;;;29.15;20.05;;;9.40;47.20;;;;;;5015173;28;20061;-85
2022/03/20 03:28:10;;;;;;;28.35;20.13;;;9.40;47.80;;;;;;4997769;28;20535;-85
2022/03/20 03:30:37;;;;;;;29.13;20.42;;;9.30;48.10;;;;;;5015304;28;20490;-85
2022/03/20 03:33:03;;;;;;;28.83;21.00;;;9.20;48.10;;;;;;5023288;28;20111;-85
2022/03/20 03:35:41;;;;;;;32.35;20.92;;;9.20;48.40;;;;;;5035188;28;20029;-86
2022/03/20 03:38:11;;;;;;;24.02;17.77;;;9.20;48.60;;;;;;5029475;28;20121;-85
2022/03/20 03:40:38;;;;;;;31.40;20.50;;;9.20;48.90;;;;;;5001774;28;20045;-86
2022/03/20 03:43:05;;;;;;;26.38;20.38;;;9.20;48.50;;;;;;5018064;28;20108;-85
2022/03/20 03:45:30;;;;;;;28.23;19.73;;;9.20;49.10;;;;;;5015345;28;20034;-88
2022/03/20 03:47:56;;;;;;;27.67;21.17;;;9.20;47.80;;;;;;5015626;28;20057;-85
2022/03/20 03:50:22;;;;;;;30.13;20.55;;;9.20;48.10;;;;;;5017565;28;20048;-85
2022/03/20 03:52:48;;;;;;;26.88;20.10;;;9.10;48.60;;;;;;5034992;28;20044;-84
2022/03/20 03:55:15;;;;;;;35.20;18.67;;;9.10;48.40;;;;;;5017268;28;20490;-85
2022/03/20 03:57:46;;;;;;;27.00;18.45;;;9.20;48.50;;;;;;5000244;28;20038;-85
2022/03/20 04:00:13;;;;;;;26.70;20.45;;;9.20;48.10;;;;;;4998990;28;20389;-85
2022/03/20 04:02:39;;;;;;;27.90;20.20;;;9.10;47.90;;;;;;5017151;28;20026;-86
2022/03/20 04:05:06;;;;;;;31.73;20.90;;;9.10;48.50;;;;;;5025307;28;20474;-85
2022/03/20 04:07:32;;;;;;;28.08;19.83;;;9.10;48.40;;;;;;4997281;28;20038;-85
2022/03/20 04:09:59;;;;;;;26.58;18.83;;;9.00;48.20;;;;;;4997475;28;20044;-85
2022/03/20 04:12:25;;;;;;;28.58;19.98;;;9.00;49.00;;;;;;5014989;28;20037;-85
2022/03/20 04:14:51;;;;;;;26.38;19.02;;;9.10;48.60;;;;;;5012112;28;20528;-85
2022/03/20 04:17:17;;;;;;;26.98;18.95;;;9.00;48.10;;;;;;5014850;28;20063;-84
2022/03/20 04:19:42;;;;;;;24.35;18.88;;;9.10;48.20;;;;;;5014479;28;20045;-85
2022/03/20 04:22:08;;;;;;;32.45;20.25;;;9.00;48.20;;;;;;5023627;28;20071;-86
2022/03/20 04:24:36;;;;;;;29.73;19.63;;;9.00;48.50;;;;;;5017188;28;20493;-87
2022/03/20 04:27:03;;;;;;;34.67;20.40;;;9.00;48.30;;;;;;5026202;28;20030;-86
2022/03/20 04:29:28;;;;;;;29.80;20.00;;;9.00;48.80;;;;;;5021284;28;20041;-85
2022/03/20 04:31:55;;;;;;;29.70;21.30;;;9.10;48.90;;;;;;5019942;28;20038;-86
2022/03/20 04:34:22;;;;;;;29.77;20.48;;;9.00;49.20;;;;;;5033203;28;20135;-83
2022/03/20 04:36:48;;;;;;;30.80;21.60;;;9.00;49.50;;;;;;5017909;28;20042;-83
2022/03/20 04:39:14;;;;;;;29.08;20.77;;;9.00;48.50;;;;;;5017543;28;20041;-84
2022/03/20 04:41:41;;;;;;;25.35;19.50;;;8.90;49.10;;;;;;5017464;28;20042;-83
2022/03/20 04:44:12;;;;;;;25.98;18.42;;;8.80;48.40;;;;;;5025822;28;20084;-82
2022/03/20 04:46:41;;;;;;;27.88;18.65;;;8.90;49.10;;;;;;5037687;28;20038;-83
2022/03/20 05:00:06;;;;;;;25.80;17.98;;;8.90;48.10;;;;;;5021717;28;20096;-85
2022/03/20 05:02:32;;;;;;;24.75;17.17;;;8.90;49.10;;;;;;4991304;28;20046;-85
2022/03/20 05:04:57;;;;;;;34.08;21.10;;;8.90;48.70;;;;;;5000298;28;20096;-84
2022/03/20 05:07:23;;;;;;;23.98;17.88;;;8.90;48.30;;;;;;4999399;28;20561;-84
2022/03/20 05:15:17;;;;;;;25.48;18.80;;;8.90;48.70;;;;;;5017472;28;20072;-84
2022/03/20 05:17:43;;;;;;;28.02;18.60;;;8.90;48.00;;;;;;5000012;28;20113;-84
2022/03/20 05:20:10;;;;;;;27.15;19.42;;;8.90;48.20;;;;;;5016790;28;20030;-83
2022/03/20 05:22:38;;;;;;;29.02;20.83;;;8.80;48.60;;;;;;5017490;28;20137;-82
2022/03/20 05:25:13;;;;;;;24.85;18.10;;;8.80;49.60;;;;;;5017055;28;20026;-83
2022/03/20 05:27:39;;;;;;;29.83;18.35;;;8.80;48.90;;;;;;5017654;28;20389;-83
2022/03/20 05:30:07;;;;;;;26.25;18.88;;;8.90;49.00;;;;;;5000289;28;20029;-86
2022/03/20 05:32:35;;;;;;;27.73;19.33;;;9.00;48.60;;;;;;5016889;28;20085;-83
2022/03/20 05:35:08;;;;;;;31.10;19.40;;;8.90;49.10;;;;;;5018203;28;20032;-84
2022/03/20 05:37:34;;;;;;;29.17;20.17;;;8.90;48.50;;;;;;5000169;28;20077;-84
2022/03/20 05:40:00;;;;;;;25.55;19.05;;;8.90;48.90;;;;;;4999320;28;20046;-84
2022/03/20 05:42:26;;;;;;;28.48;19.20;;;8.80;48.70;;;;;;4999647;28;20069;-83
2022/03/20 05:44:52;;;;;;;25.70;18.77;;;8.80;49.30;;;;;;5005566;28;20105;-84
2022/03/20 05:47:18;;;;;;;28.20;18.73;;;8.80;48.80;;;;;;5001714;28;20072;-86
2022/03/20 05:49:43;;;;;;;25.80;16.77;;;8.90;48.40;;;;;;4998661;28;20121;-85
2022/03/20 05:52:09;;;;;;;25.52;18.23;;;9.00;48.30;;;;;;4997590;28;20035;-83
2022/03/20 05:54:35;;;;;;;27.17;19.42;;;8.90;48.10;;;;;;4997196;28;20114;-84
2022/03/20 05:59:45;;;;;;;26.88;18.63;;;8.90;48.60;;;;;;4996798;28;20041;-83
2022/03/20 06:02:12;;;;;;;29.85;20.00;;;8.90;48.90;;;;;;4997049;28;20046;-82
2022/03/20 06:04:38;;;;;;;29.38;20.23;;;8.80;48.80;;;;;;4997246;28;20497;-84
2022/03/20 06:07:05;;;;;;;26.83;18.27;;;8.80;48.50;;;;;;4995380;28;20054;-84
2022/03/20 06:09:31;;;;;;;28.33;19.38;;;8.80;49.70;;;;;;5003391;28;20034;-84
2022/03/20 06:11:56;;;;;;;25.48;18.20;;;8.80;48.90;;;;;;4996812;28;20092;-84
2022/03/20 06:14:23;;;;;;;27.25;19.90;;;8.70;49.60;;;;;;4996757;28;20065;-84
2022/03/20 06:16:49;;;;;;;27.20;20.83;;;8.80;48.70;;;;;;5010879;28;20045;-84
2022/03/20 06:19:16;;;;;;;26.73;19.65;;;8.80;48.60;;;;;;4987872;28;20038;-84
2022/03/20 06:21:43;;;;;;;25.90;19.75;;;8.80;49.20;;;;;;5002307;28;20038;-83
2022/03/20 06:24:09;;;;;;;28.58;19.98;;;8.80;48.80;;;;;;5009765;28;20475;-82
2022/03/20 06:26:35;;;;;;;29.98;21.27;;;8.80;48.40;;;;;;5011239;28;20054;-83
2022/03/20 06:29:02;;;;;;;24.50;18.17;;;8.80;49.20;;;;;;4995416;28;20085;-83
2022/03/20 06:31:28;;;;;;;28.48;19.08;;;8.90;49.20;;;;;;4984182;28;20049;-83
2022/03/20 06:33:54;;;;;;;28.23;18.98;;;9.00;48.80;;;;;;5000856;28;20039;-84
2022/03/20 06:36:20;;;;;;;30.10;19.13;;;9.00;48.70;;;;;;4992784;28;21827;-84
2022/03/20 06:38:46;;;;;;;26.13;18.85;;;9.00;49.70;;;;;;5033491;28;20049;-85
2022/03/20 06:41:11;;;;;;;26.35;18.60;;;9.00;49.30;;;;;;5005516;28;20039;-88
2022/03/20 06:43:38;;;;;;;24.48;18.92;;;9.10;47.80;;;;;;5004530;28;20084;-85
2022/03/20 06:46:07;;;;;;;26.90;16.15;;;9.10;48.00;;;;;;5018911;28;20049;-85
2022/03/20 06:48:34;;;;;;;23.13;17.35;;;9.20;48.30;;;;;;5004208;28;20041;-85
2022/03/20 06:51:00;;;;;;;29.63;19.95;;;9.30;48.10;;;;;;5022902;28;20478;-87
2022/03/20 06:53:27;;;;;;;26.90;17.92;;;9.30;47.40;;;;;;5008046;28;20038;-84
2022/03/20 06:55:53;;;;;;;21.75;16.80;;;9.40;46.70;;;;;;5028213;28;20038;-83
2022/03/20 06:58:20;;;;;;;21.40;16.17;;;9.50;46.90;;;;;;4996511;28;20034;-83
2022/03/20 07:00:46;;;;;;;24.20;18.17;;;9.50;48.40;;;;;;5013659;28;20030;-82
2022/03/20 07:03:12;;;;;;;21.88;16.30;;;9.60;48.10;;;;;;5016195;28;20100;-81
2022/03/20 07:05:39;;;;;;;23.85;17.98;;;9.70;46.30;;;;;;5012354;28;20129;-80
2022/03/20 07:08:06;;;;;;;25.48;16.73;;;9.70;46.00;;;;;;4996517;28;20462;-81
2022/03/20 07:10:33;;;;;;;22.83;16.73;;;9.80;46.90;;;;;;5016133;28;20037;-80
2022/03/20 07:15:45;;;;;;;23.42;16.60;;;10.00;45.60;;;;;;5009554;28;20044;-85
2022/03/20 07:18:16;;;;;;;23.27;17.38;;;10.00;46.90;;;;;;5010412;28;20069;-84
2022/03/20 07:20:46;;;;;;;22.40;17.73;;;10.10;46.50;;;;;;5012479;28;20041;-82
2022/03/20 07:23:13;;;;;;;;;;;10.20;45.60;;;;;;4993964;28;20394;-85
2022/03/20 07:31:09;;;;;;;34.30;18.02;;;10.50;45.40;;;;;;5014088;28;20052;-84
2022/03/20 07:33:36;;;;;;;25.05;16.58;;;10.60;45.40;;;;;;5010697;28;20458;-83
2022/03/20 07:36:03;;;;;;;24.80;18.65;;;10.70;46.10;;;;;;5013755;28;20026;-85
2022/03/20 07:38:30;;;;;;;24.67;17.20;;;10.80;45.40;;;;;;5015590;28;20063;-86
2022/03/20 07:40:55;;;;;;;27.92;17.50;;;10.90;46.40;;;;;;4985947;28;20045;-83
2022/03/20 07:43:21;;;;;;;25.17;17.45;;;10.90;46.60;;;;;;5023069;28;20038;-84
2022/03/20 07:45:50;;;;;;;25.33;19.75;;;11.10;46.80;;;;;;5021833;28;20519;-82
2022/03/20 07:48:15;;;;;;;21.35;15.93;;;11.10;45.00;;;;;;4999340;28;20493;-86
2022/03/20 07:50:41;;;;;;;28.33;17.48;;;11.10;46.30;;;;;;4999699;28;20042;-84
2022/03/20 07:53:08;;;;;;;23.15;18.10;;;11.20;44.10;;;;;;5016745;28;20026;-84
2022/03/20 07:55:34;;;;;;;24.27;17.65;;;11.30;43.60;;;;;;4996526;28;20108;-82
2022/03/20 07:58:01;;;;;;;22.80;18.17;;;11.40;43.90;;;;;;5020784;28;20116;-80
2022/03/20 08:00:27;;;;;;;26.67;18.02;;;11.40;43.10;;;;;;5018805;28;20068;-85
2022/03/20 08:02:53;;;;;;;24.35;17.60;;;11.50;43.80;;;;;;5000591;28;20111;-84
2022/03/20 08:05:20;;;;;;;20.67;15.85;;;11.60;44.10;;;;;;5033607;28;20045;-85
2022/03/20 08:07:46;;;;;;;22.10;16.08;;;11.80;44.20;;;;;;5024240;28;20040;-85
2022/03/20 08:10:13;;;;;;;20.90;15.68;;;11.90;43.00;;;;;;5024701;28;20040;-83
2022/03/20 08:12:39;;;;;;;29.52;18.05;;;12.00;43.70;;;;;;5015235;28;20037;-83
2022/03/20 08:15:06;;;;;;;21.50;15.98;;;12.10;42.20;;;;;;5031915;28;20041;-83
2022/03/20 08:17:42;;;;;;;19.25;15.30;;;12.20;42.10;;;;;;5001444;28;20034;-82
2022/03/20 08:20:09;;;;;;;21.05;16.23;;;12.40;41.20;;;;;;5003804;28;20046;-82
2022/03/20 08:22:35;;;;;;;18.48;14.98;;;12.50;40.30;;;;;;5021043;28;20025;-84
2022/03/20 08:25:02;;;;;;;18.10;14.23;;;12.60;38.00;;;;;;5021479;28;20164;-84
2022/03/20 08:27:28;;;;;;;20.23;14.45;;;12.70;37.30;;;;;;5002588;28;20404;-84
2022/03/20 08:29:55;;;;;;;23.85;14.40;;;12.80;37.00;;;;;;5016814;28;20093;-87
2022/03/20 08:32:22;;;;;;;20.55;14.23;;;12.80;36.40;;;;;;5032533;28;20508;-83
2022/03/20 08:34:48;;;;;;;17.13;13.32;;;12.90;35.30;;;;;;5016005;28;20505;-86
2022/03/20 08:37:14;;;;;;;21.58;13.75;;;13.00;35.60;;;;;;5024312;28;20045;-83
2022/03/20 08:39:40;;;;;;;15.40;12.35;;;13.10;34.00;;;;;;5028459;28;20034;-85
2022/03/20 08:42:06;;;;;;;21.23;14.63;;;13.20;35.00;;;;;;5031055;28;20061;-84
2022/03/20 08:44:32;;;;;;;19.70;14.13;;;13.30;35.20;;;;;;5032278;28;20049;-82
2022/03/20 08:47:01;;;;;;;17.75;13.60;;;13.40;34.40;;;;;;5031456;28;20041;-83
2022/03/20 08:49:27;;;;;;;17.30;13.32;;;13.50;34.00;;;;;;5016117;28;20037;-83
2022/03/20 08:51:52;;;;;;;18.77;14.45;;;13.50;33.90;;;;;;4996951;28;20121;-85
2022/03/20 08:54:18;;;;;;;18.25;13.40;;;13.60;34.50;;;;;;5023015;28;20030;-85
2022/03/20 08:56:44;;;;;;;14.85;12.30;;;13.70;34.90;;;;;;5005273;28;20045;-85
2022/03/20 08:59:10;;;;;;;18.15;13.50;;;13.90;35.10;;;;;;4995534;28;20729;-85
2022/03/20 09:01:35;;;;;;;18.17;12.90;;;14.00;33.80;;;;;;4996589;28;20042;-85
2022/03/20 09:04:01;;;;;;;22.08;13.27;;;14.10;34.70;;;;;;5010316;28;20034;-85
2022/03/20 09:06:28;;;;;;;14.40;11.95;;;14.20;33.80;;;;;;5023727;28;20064;-85
2022/03/20 09:08:54;;;;;;;17.95;14.13;;;14.40;34.40;;;;;;5016302;28;20038;-82
2022/03/20 09:11:21;;;;;;;16.83;13.60;;;14.50;32.10;;;;;;5012481;28;20088;-83
2022/03/20 09:13:47;;;;;;;18.67;13.68;;;14.50;33.70;;;;;;5026960;28;20085;-83
2022/03/20 09:19:04;;;;;;;17.92;13.43;;;14.80;32.50;;;;;;5014619;28;20049;-82
2022/03/20 09:21:32;;;;;;;16.15;12.70;;;14.80;31.30;;;;;;5016643;28;20052;-83
2022/03/20 09:23:59;;;;;;;15.98;12.13;;;14.90;30.90;;;;;;4998946;28;20497;-83
2022/03/20 09:26:24;;;;;;;15.18;11.80;;;15.00;31.20;;;;;;5017554;28;20034;-83
2022/03/20 09:28:50;;;;;;;13.65;11.30;;;15.10;31.40;;;;;;5017526;28;20052;-84
2022/03/20 09:31:17;;;;;;;20.30;12.93;;;15.20;30.00;;;;;;5028578;28;20037;-85
2022/03/20 09:33:43;;;;;;;15.68;11.32;;;15.30;29.50;;;;;;5003410;28;20117;-85
2022/03/20 09:36:10;;;;;;;16.98;13.13;;;15.50;29.30;;;;;;5024039;28;20039;-85
2022/03/20 09:38:36;;;;;;;16.58;12.90;;;15.60;30.00;;;;;;4996415;28;20412;-80
2022/03/20 09:41:07;;;;;;;15.45;12.48;;;15.70;30.00;;;;;;5034271;28;20042;-80
2022/03/20 09:43:34;;;;;;;15.18;12.00;;;15.80;29.70;;;;;;5014272;28;20535;-86
2022/03/20 09:46:01;;;;;;;15.88;12.00;;;15.90;29.30;;;;;;5028536;28;20042;-86
2022/03/20 09:48:29;;;;;;;12.98;11.07;;;16.00;29.10;;;;;;5010522;28;20045;-81
2022/03/20 09:50:57;;;;;;;15.45;11.70;;;16.20;28.90;;;;;;5016184;28;20030;-80
2022/03/20 09:53:22;;;;;;;13.02;10.32;;;16.30;28.30;;;;;;5023094;28;20036;-80
2022/03/20 09:55:48;;;;;;;14.95;11.45;;;16.40;28.50;;;;;;5031354;28;20132;-79
2022/03/20 09:58:14;;;;;;;14.32;10.48;;;16.60;27.50;;;;;;5024098;28;20041;-80
2022/03/20 10:00:40;;;;;;;18.17;11.18;;;16.70;28.00;;;;;;5025273;28;20121;-80
2022/03/20 10:03:16;;;;;;;15.57;10.38;;;16.80;28.00;;;;;;5018353;28;20117;-80
2022/03/20 10:05:42;;;;;;;15.35;10.93;;;16.80;27.70;;;;;;4997976;28;20490;-79
2022/03/20 10:08:17;;;;;;;14.38;9.77;;;16.90;26.60;;;;;;5014888;28;20110;-80
2022/03/20 10:10:43;;;;;;;14.07;10.38;;;16.90;26.00;;;;;;5016777;28;20133;-83
2022/03/20 10:13:13;;;;;;;13.63;10.13;;;17.00;26.60;;;;;;5026548;28;20097;-82
2022/03/20 10:15:42;;;;;;;11.82;9.65;;;17.10;26.80;;;;;;5018778;28;20140;-85
2022/03/20 10:18:16;;;;;;;22.42;10.65;;;17.20;26.50;;;;;;5020437;28;20088;-84
2022/03/20 10:20:53;;;;;;;13.98;10.07;;;17.10;26.30;;;;;;5013416;28;20045;-84
2022/03/20 10:23:30;;;;;;;18.20;10.65;;;17.20;26.30;;;;;;5013323;28;20033;-85
2022/03/20 10:25:57;;;;;;;14.00;9.60;;;17.20;25.90;;;;;;5023344;28;20046;-84
2022/03/20 10:28:23;;;;;;;12.48;9.80;;;17.40;26.40;;;;;;5005406;28;20042;-84
2022/03/20 10:31:03;;;;;;;14.07;10.30;;;17.60;24.60;;;;;;4994989;28;20044;-83
2022/03/20 10:33:28;;;;;;;14.95;10.30;;;17.60;24.70;;;;;;4991547;28;20509;-84
2022/03/20 10:36:19;;;;;;;12.88;9.80;;;17.70;25.00;;;;;;5013380;28;20034;-83
2022/03/20 10:38:48;;;;;;;12.07;9.63;;;17.80;25.70;;;;;;5012414;28;20042;-85
2022/03/20 14:10:19;;;;;;;10.68;8.70;;;17.10;24.40;;;;;;5105157;23;20115;-85
2022/03/20 14:12:45;;;;;;;12.70;9.00;;;17.10;24.40;;;;;;5039234;28;20480;-85
2022/03/20 14:15:12;;;;;;;11.90;8.95;;;17.00;24.70;;;;;;5049958;28;20091;-83
2022/03/20 14:17:52;;;;;;;14.25;9.63;;;17.00;24.20;;;;;;5042888;28;20037;-79
2022/03/20 14:20:22;;;;;;;11.20;8.52;;;16.90;25.20;;;;;;5046238;28;20037;-84
2022/03/20 14:22:57;;;;;;;11.23;8.73;;;16.90;24.60;;;;;;5023904;28;20040;-85
2022/03/20 14:25:34;;;;;;;12.55;8.95;;;16.70;25.00;;;;;;5044789;28;20427;-83
2022/03/20 14:28:23;;;;;;;12.30;8.57;;;16.70;25.30;;;;;;5041287;28;20044;-84
2022/03/20 14:39:39;;;;;;;9.80;8.25;;;16.40;26.20;;;;;;5054991;28;20505;-82
2022/03/20 14:42:05;;;;;;;11.43;7.78;;;16.40;26.50;;;;;;5055320;28;20037;-82
2022/03/20 14:44:31;;;;;;;13.10;8.77;;;16.50;26.10;;;;;;5025406;28;20041;-82
2022/03/20 14:47:05;;;;;;;10.40;8.25;;;16.40;26.10;;;;;;5054921;28;20029;-85
2022/03/20 14:49:34;;;;;;;15.98;9.00;;;16.40;26.00;;;;;;5054511;28;20033;-83
2022/03/20 14:52:01;;;;;;;12.30;8.63;;;16.30;26.50;;;;;;5050640;28;20029;-84
2022/03/20 14:54:26;;;;;;;15.02;8.45;;;16.20;27.30;;;;;;5046923;28;20081;-83
2022/03/20 14:56:56;;;;;;;11.02;8.80;;;16.30;26.60;;;;;;5049630;28;20090;-83
2022/03/20 14:59:22;;;;;;;11.50;9.07;;;16.20;26.50;;;;;;5042700;28;20369;-84
2022/03/20 15:01:51;;;;;;;11.98;8.85;;;16.20;24.80;;;;;;5050450;28;20042;-84
2022/03/20 15:04:17;;;;;;;12.10;8.73;;;16.20;25.50;;;;;;5045884;28;20033;-81
2022/03/20 15:06:49;;;;;;;11.85;9.23;;;16.10;25.80;;;;;;5048535;28;20175;-80
2022/03/20 15:12:00;;;;;;;10.80;8.50;;;15.90;25.20;;;;;;5047811;28;20159;-80
2022/03/20 15:14:26;;;;;;;13.38;8.85;;;16.00;25.90;;;;;;5054854;28;20465;-80
2022/03/20 15:16:55;;;;;;;10.30;7.85;;;16.00;25.50;;;;;;5049427;28;20083;-80
2022/03/20 15:19:21;;;;;;;10.27;8.30;;;16.10;25.50;;;;;;5040078;28;20047;-80
2022/03/20 15:21:47;;;;;;;11.43;8.45;;;16.10;25.40;;;;;;5042329;28;20036;-81
2022/03/20 15:24:13;;;;;;;11.30;8.75;;;16.20;25.90;;;;;;5023196;28;20131;-86
2022/03/20 15:26:40;;;;;;;12.85;8.15;;;16.10;25.40;;;;;;5027841;28;22265;-84
2022/03/20 15:29:06;;;;;;;10.70;8.32;;;16.10;25.20;;;;;;5045386;28;20037;-84
2022/03/20 15:31:35;;;;;;;14.05;9.52;;;16.10;25.50;;;;;;5046891;28;20141;-84
2022/03/20 15:34:02;;;;;;;15.88;9.10;;;16.00;25.00;;;;;;5041543;28;20397;-84
2022/03/20 15:36:30;;;;;;;13.27;8.52;;;16.00;25.00;;;;;;5042456;28;20475;-84
2022/03/20 15:38:57;;;;;;;12.55;9.13;;;15.90;25.50;;;;;;5048806;28;20123;-84
2022/03/20 15:41:27;;;;;;;12.18;8.85;;;15.80;24.30;;;;;;5050717;28;20589;-83
2022/03/20 15:43:55;;;;;;;12.63;8.52;;;15.80;25.50;;;;;;5045284;28;20533;-78
2022/03/20 15:46:24;;;;;;;11.90;8.30;;;15.90;25.00;;;;;;5051284;28;20052;-77
2022/03/20 15:48:50;;;;;;;16.42;8.48;;;15.90;25.00;;;;;;5034085;28;20044;-77
2022/03/20 15:51:16;;;;;;;12.73;8.55;;;15.80;24.70;;;;;;5049849;28;20041;-78
2022/03/20 15:53:41;;;;;;;11.15;8.00;;;15.70;25.10;;;;;;5051252;28;20124;-77
2022/03/20 15:56:08;;;;;;;12.68;8.88;;;15.80;24.80;;;;;;5052241;28;20045;-84
2022/03/20 15:58:37;;;;;;;10.30;8.80;;;15.80;25.40;;;;;;5049484;28;20037;-85
2022/03/20 16:01:04;;;;;;;13.07;8.98;;;15.80;25.10;;;;;;5044320;28;20045;-84
2022/03/20 16:03:31;;;;;;;11.18;8.30;;;15.80;25.50;;;;;;5028639;28;20064;-84
2022/03/20 16:05:57;;;;;;;10.80;8.13;;;15.80;25.40;;;;;;5022239;28;20041;-84
2022/03/20 16:08:22;;;;;;;9.73;8.32;;;15.80;25.00;;;;;;5053669;28;20056;-84
2022/03/20 16:10:49;;;;;;;11.80;8.10;;;15.70;25.60;;;;;;5042825;28;20095;-77
2022/03/20 16:13:15;;;;;;;11.48;8.05;;;15.70;24.70;;;;;;5031985;28;20111;-77
2022/03/20 16:15:43;;;;;;;10.68;8.50;;;15.70;26.00;;;;;;5047803;28;20066;-77
2022/03/20 16:18:14;;;;;;;9.20;7.53;;;15.60;24.90;;;;;;5049981;28;20052;-77
2022/03/20 16:20:41;;;;;;;10.85;7.32;;;15.60;24.80;;;;;;5032539;28;20511;-78
2022/03/20 16:28:39;;;;;;;10.77;7.57;;;15.50;26.10;;;;;;5047951;28;20041;-78
2022/03/20 16:31:10;;;;;;;10.88;8.32;;;15.50;25.80;;;;;;5052423;28;20124;-77
2022/03/20 16:33:37;;;;;;;12.40;8.73;;;15.40;24.40;;;;;;5052826;28;20033;-77
2022/03/20 16:36:04;;;;;;;11.13;8.18;;;15.30;25.10;;;;;;5024798;28;20061;-78
2022/03/20 16:38:30;;;;;;;12.93;8.55;;;15.30;24.70;;;;;;5042516;28;20511;-79
2022/03/20 16:40:57;;;;;;;9.25;7.72;;;15.20;24.90;;;;;;5042071;28;20033;-78
2022/03/20 16:43:24;;;;;;;9.60;7.90;;;15.10;25.50;;;;;;5050427;28;20025;-78
2022/03/20 16:45:52;;;;;;;10.95;8.07;;;15.10;26.30;;;;;;5048034;28;20763;-78
